createdAt,value
2016-08-25T00:00:47.218Z,0
2016-08-25T00:01:47.883Z,0
2016-08-25T00:02:47.851Z,0
2016-08-25T00:03:46.430Z,0
2016-08-25T00:04:47.097Z,0
2016-08-25T00:05:46.365Z,0
2016-08-25T00:06:47.721Z,0
2016-08-25T00:07:47.708Z,0
2016-08-25T00:08:46.973Z,0
2016-08-25T00:09:46.940Z,0
2016-08-25T00:10:47.613Z,0
2016-08-25T00:11:47.579Z,0
2016-08-25T00:12:47.546Z,0
2016-08-25T00:13:46.130Z,0
2016-08-25T00:14:46.087Z,0
2016-08-25T00:15:47.451Z,0
2016-08-25T00:16:46.722Z,0
2016-08-25T00:17:45.297Z,0
2016-08-25T00:18:47.368Z,0
2016-08-25T00:19:47.328Z,0
2016-08-25T00:20:46.601Z,0
2016-08-25T00:21:46.572Z,0
2016-08-25T00:22:46.537Z,0
2016-08-25T00:23:46.511Z,0
2016-08-25T00:24:47.173Z,0
2016-08-25T00:25:46.446Z,0
2016-08-25T00:26:45.722Z,0
2016-08-25T00:27:46.383Z,0
2016-08-25T00:28:45.656Z,0
2016-08-25T00:29:46.325Z,0
2016-08-25T00:30:46.988Z,0
2016-08-25T00:31:46.961Z,0
2016-08-25T00:32:46.927Z,0
2016-08-25T00:33:46.894Z,0
2016-08-25T00:34:46.865Z,0
2016-08-25T00:35:45.452Z,0
2016-08-25T00:36:46.799Z,0
2016-08-25T00:37:46.778Z,0
2016-08-25T00:38:46.040Z,0
2016-08-25T00:39:45.315Z,0
2016-08-25T00:40:45.281Z,0
2016-08-25T00:41:45.957Z,0
2016-08-25T00:42:46.629Z,0
2016-08-25T00:43:45.886Z,0
2016-08-25T00:44:45.866Z,0
2016-08-25T00:45:45.823Z,0
2016-08-25T00:46:44.402Z,0
2016-08-25T00:47:46.458Z,0
2016-08-25T00:48:45.737Z,0
2016-08-25T00:49:45.698Z,0
2016-08-25T00:50:46.372Z,0
2016-08-25T00:51:46.339Z,0
2016-08-25T00:52:45.604Z,0
2016-08-25T00:53:45.584Z,0
2016-08-25T00:54:45.544Z,0
2016-08-25T00:55:45.516Z,0
2016-08-25T00:56:45.483Z,0
2016-08-25T00:57:44.748Z,0
2016-08-25T00:58:45.413Z,0
2016-08-25T00:59:45.383Z,0
2016-08-25T01:00:46.051Z,0
2016-08-25T01:01:45.331Z,0
2016-08-25T01:02:45.300Z,0
2016-08-25T01:03:45.260Z,0
2016-08-25T01:04:45.225Z,0
2016-08-25T01:05:45.902Z,0
2016-08-25T01:06:45.161Z,0
2016-08-25T01:07:45.132Z,0
2016-08-25T01:08:45.795Z,0
2016-08-25T01:09:45.067Z,0
2016-08-25T01:10:45.039Z,0
2016-08-25T01:11:44.308Z,0
2016-08-25T01:12:45.677Z,0
2016-08-25T01:13:45.648Z,0
2016-08-25T01:14:44.907Z,0
2016-08-25T01:15:45.585Z,0
2016-08-25T01:16:44.844Z,0
2016-08-25T01:17:44.815Z,0
2016-08-25T01:18:44.085Z,0
2016-08-25T01:19:45.446Z,0
2016-08-25T01:20:45.423Z,0
2016-08-25T01:21:44.689Z,0
2016-08-25T01:22:44.658Z,0
2016-08-25T01:23:45.324Z,0
2016-08-25T01:24:45.294Z,0
2016-08-25T01:25:43.875Z,0
2016-08-25T01:26:45.237Z,0
2016-08-25T01:27:45.197Z,0
2016-08-25T01:28:44.469Z,0
2016-08-25T01:29:44.439Z,0
2016-08-25T01:30:44.410Z,0
2016-08-25T01:31:45.083Z,0
2016-08-25T01:32:43.657Z,0
2016-08-25T01:33:43.607Z,0
2016-08-25T01:34:44.279Z,0
2016-08-25T01:35:44.941Z,0
2016-08-25T01:36:44.232Z,0
2016-08-25T01:37:44.186Z,0
2016-08-25T01:38:44.841Z,0
2016-08-25T01:39:44.123Z,0
2016-08-25T01:40:44.784Z,0
2016-08-25T01:41:44.057Z,0
2016-08-25T01:42:44.718Z,0
2016-08-25T01:43:44.695Z,0
2016-08-25T01:44:44.662Z,0
2016-08-25T01:45:43.925Z,0
2016-08-25T01:46:44.594Z,0
2016-08-25T01:47:42.477Z,0
2016-08-25T01:48:43.831Z,0
2016-08-25T01:49:43.104Z,0
2016-08-25T01:50:44.470Z,0
2016-08-25T01:51:44.432Z,0
2016-08-25T01:52:43.703Z,0
2016-08-25T01:53:44.374Z,0
2016-08-25T01:54:44.334Z,0
2016-08-25T01:55:44.308Z,0
2016-08-25T01:56:44.275Z,0
2016-08-25T01:57:44.242Z,0
2016-08-25T01:58:43.514Z,0
2016-08-25T01:59:44.175Z,0
2016-08-25T02:00:43.448Z,0
2016-08-25T02:01:43.425Z,0
2016-08-25T02:02:44.077Z,0
2016-08-25T02:03:43.353Z,0
2016-08-25T02:04:44.018Z,0
2016-08-25T02:05:43.996Z,0
2016-08-25T02:06:43.961Z,0
2016-08-25T02:07:43.934Z,0
2016-08-25T02:08:43.889Z,0
2016-08-25T02:09:43.164Z,0
2016-08-25T02:10:43.834Z,0
2016-08-25T02:11:42.400Z,0
2016-08-25T02:12:43.765Z,0
2016-08-25T02:13:43.031Z,0
2016-08-25T02:14:43.004Z,0
2016-08-25T02:15:42.973Z,0
2016-08-25T02:16:43.638Z,0
2016-08-25T02:17:42.910Z,0
2016-08-25T02:18:42.871Z,0
2016-08-25T02:19:42.838Z,0
2016-08-25T02:20:43.505Z,0
2016-08-25T02:21:42.786Z,0
2016-08-25T02:22:42.750Z,0
2016-08-25T02:23:43.411Z,0
2016-08-25T02:24:43.381Z,0
2016-08-25T02:25:43.352Z,0
2016-08-25T02:26:42.617Z,0
2016-08-25T02:27:41.885Z,0
2016-08-25T02:28:42.563Z,0
2016-08-25T02:29:42.524Z,0
2016-08-25T02:30:42.496Z,0
2016-08-25T02:31:42.451Z,0
2016-08-25T02:32:42.420Z,0
2016-08-25T02:33:42.403Z,0
2016-08-25T02:34:42.361Z,0
2016-08-25T02:35:42.343Z,0
2016-08-25T02:36:42.988Z,0
2016-08-25T02:37:42.961Z,0
2016-08-25T02:38:40.837Z,0
2016-08-25T02:39:42.892Z,0
2016-08-25T02:40:42.164Z,0
2016-08-25T02:41:42.136Z,0
2016-08-25T02:42:42.796Z,0
2016-08-25T02:43:41.371Z,0
2016-08-25T02:44:42.031Z,0
2016-08-25T02:45:41.324Z,0
2016-08-25T02:46:41.971Z,0
2016-08-25T02:47:41.246Z,0
2016-08-25T02:48:42.608Z,0
2016-08-25T02:49:42.566Z,0
2016-08-25T02:50:42.538Z,0
2016-08-25T02:51:42.508Z,0
2016-08-25T02:52:42.471Z,0
2016-08-25T02:53:42.446Z,0
2016-08-25T02:54:42.410Z,0
2016-08-25T02:55:42.379Z,0
2016-08-25T02:56:40.962Z,0
2016-08-25T02:57:42.319Z,0
2016-08-25T02:58:42.289Z,0
2016-08-25T02:59:42.247Z,0
2016-08-25T03:00:40.819Z,0
2016-08-25T03:01:41.514Z,0
2016-08-25T03:02:42.150Z,0
2016-08-25T03:03:42.118Z,0
2016-08-25T03:04:41.385Z,0
2016-08-25T03:05:42.053Z,0
2016-08-25T03:06:42.017Z,0
2016-08-25T03:07:41.291Z,0
2016-08-25T03:08:41.268Z,0
2016-08-25T03:09:39.834Z,0
2016-08-25T03:10:41.194Z,0
2016-08-25T03:11:41.858Z,0
2016-08-25T03:12:40.440Z,0
2016-08-25T03:13:41.112Z,0
2016-08-25T03:14:41.767Z,0
2016-08-25T03:15:41.735Z,0
2016-08-25T03:16:40.319Z,0
2016-08-25T03:17:40.964Z,0
2016-08-25T03:18:40.947Z,0
2016-08-25T03:19:41.604Z,0
2016-08-25T03:20:41.565Z,0
2016-08-25T03:21:40.837Z,0
2016-08-25T03:22:40.807Z,0
2016-08-25T03:23:41.468Z,0
2016-08-25T03:24:40.738Z,0
2016-08-25T03:25:40.709Z,0
2016-08-25T03:26:41.369Z,0
2016-08-25T03:27:41.340Z,0
2016-08-25T03:28:39.911Z,0
2016-08-25T03:29:40.576Z,0
2016-08-25T03:30:41.251Z,0
2016-08-25T03:31:40.510Z,0
2016-08-25T03:32:40.479Z,0
2016-08-25T03:33:39.064Z,0
2016-08-25T03:34:41.105Z,0
2016-08-25T03:35:40.379Z,0
2016-08-25T03:36:40.349Z,0
2016-08-25T03:37:41.011Z,0
2016-08-25T03:38:40.289Z,0
2016-08-25T03:39:40.951Z,0
2016-08-25T03:40:40.224Z,0
2016-08-25T03:41:39.496Z,0
2016-08-25T03:42:40.155Z,0
2016-08-25T03:43:40.120Z,0
2016-08-25T03:44:38.694Z,0
2016-08-25T03:45:40.066Z,0
2016-08-25T03:46:40.718Z,0
2016-08-25T03:47:39.293Z,0
2016-08-25T03:48:40.653Z,0
2016-08-25T03:49:39.923Z,0
2016-08-25T03:50:40.598Z,0
2016-08-25T03:51:39.167Z,0
2016-08-25T03:52:39.834Z,0
2016-08-25T03:53:39.104Z,0
2016-08-25T03:54:39.066Z,4
2016-08-25T03:55:39.725Z,4
2016-08-25T03:56:39.711Z,0
2016-08-25T03:57:39.664Z,4
2016-08-25T03:58:38.930Z,4
2016-08-25T03:59:39.600Z,4
2016-08-25T04:00:40.260Z,4
2016-08-25T04:01:38.835Z,8
2016-08-25T04:02:38.804Z,8
2016-08-25T04:03:39.468Z,8
2016-08-25T04:04:40.122Z,8
2016-08-25T04:05:39.410Z,12
2016-08-25T04:06:39.367Z,12
2016-08-25T04:07:39.334Z,16
2016-08-25T04:08:40.021Z,20
2016-08-25T04:09:39.275Z,20
2016-08-25T04:10:38.539Z,24
2016-08-25T04:11:39.214Z,32
2016-08-25T04:12:39.175Z,40
2016-08-25T04:13:39.138Z,44
2016-08-25T04:14:39.817Z,52
2016-08-25T04:15:38.376Z,60
2016-08-25T04:16:39.040Z,72
2016-08-25T04:17:38.314Z,80
2016-08-25T04:18:38.984Z,96
2016-08-25T04:19:38.941Z,112
2016-08-25T04:20:38.216Z,124
2016-08-25T04:21:39.576Z,144
2016-08-25T04:22:38.145Z,156
2016-08-25T04:23:38.813Z,180
2016-08-25T04:24:38.780Z,200
2016-08-25T04:25:38.744Z,224
2016-08-25T04:26:37.326Z,248
2016-08-25T04:27:39.391Z,276
2016-08-25T04:28:38.644Z,304
2016-08-25T04:29:38.615Z,332
2016-08-25T04:30:38.577Z,364
2016-08-25T04:31:38.551Z,400
2016-08-25T04:32:38.510Z,436
2016-08-25T04:33:39.184Z,476
2016-08-25T04:34:39.160Z,516
2016-08-25T04:35:37.714Z,556
2016-08-25T04:36:38.383Z,600
2016-08-25T04:37:38.353Z,648
2016-08-25T04:38:38.333Z,700
2016-08-25T04:39:37.588Z,752
2016-08-25T04:40:38.254Z,804
2016-08-25T04:41:38.218Z,860
2016-08-25T04:42:38.883Z,916
2016-08-25T04:43:38.149Z,976
2016-08-25T04:44:38.120Z,1040
2016-08-25T04:45:38.785Z,1104
2016-08-25T04:46:38.749Z,1172
2016-08-25T04:47:38.711Z,1252
2016-08-25T04:48:38.692Z,1340
2016-08-25T04:49:37.952Z,1424
2016-08-25T04:50:37.230Z,1504
2016-08-25T04:51:38.592Z,1576
2016-08-25T04:52:38.552Z,1652
2016-08-25T04:53:37.825Z,1728
2016-08-25T04:54:38.485Z,1828
2016-08-25T04:55:37.063Z,1940
2016-08-25T04:56:38.424Z,1996
2016-08-25T04:57:38.383Z,2052
2016-08-25T04:58:37.656Z,2100
2016-08-25T04:59:38.323Z,2160
2016-08-25T05:00:38.299Z,2240
2016-08-25T05:01:36.871Z,2316
2016-08-25T05:02:37.528Z,2384
2016-08-25T05:03:37.505Z,2472
2016-08-25T05:04:37.461Z,2576
2016-08-25T05:05:38.128Z,2720
2016-08-25T05:06:37.391Z,2832
2016-08-25T05:07:37.368Z,2976
2016-08-25T05:08:38.028Z,3200
2016-08-25T05:09:38.004Z,3504
2016-08-25T05:10:37.268Z,3892
2016-08-25T05:11:37.242Z,4376
2016-08-25T05:12:37.201Z,5312
2016-08-25T05:13:36.476Z,6280
2016-08-25T05:14:37.136Z,6628
2016-08-25T05:15:37.813Z,6852
2016-08-25T05:16:37.076Z,7028
2016-08-25T05:17:37.039Z,7312
2016-08-25T05:18:36.312Z,7604
2016-08-25T05:19:36.975Z,7916
2016-08-25T05:20:36.248Z,8252
2016-08-25T05:21:36.920Z,8872
2016-08-25T05:22:37.577Z,12100
2016-08-25T05:23:36.155Z,16864
2016-08-25T05:24:36.823Z,20768
2016-08-25T05:25:37.486Z,22880
2016-08-25T05:26:37.456Z,23424
2016-08-25T05:27:37.427Z,23168
2016-08-25T05:28:36.000Z,23712
2016-08-25T05:29:37.367Z,24288
2016-08-25T05:30:35.952Z,23872
2016-08-25T05:31:37.317Z,25408
2016-08-25T05:32:37.288Z,26848
2016-08-25T05:33:36.552Z,27232
2016-08-25T05:34:37.216Z,28960
2016-08-25T05:35:37.205Z,28672
2016-08-25T05:36:37.179Z,28608
2016-08-25T05:37:37.131Z,28960
2016-08-25T05:38:36.409Z,29280
2016-08-25T05:39:36.378Z,30368
2016-08-25T05:40:36.351Z,30592
2016-08-25T05:41:36.339Z,30048
2016-08-25T05:42:36.307Z,31168
2016-08-25T05:43:36.971Z,32736
2016-08-25T05:44:36.943Z,31904
2016-08-25T05:45:36.914Z,31392
2016-08-25T05:46:36.190Z,32448
2016-08-25T05:47:36.869Z,33568
2016-08-25T05:48:35.443Z,33056
2016-08-25T05:49:36.817Z,33792
2016-08-25T05:50:36.785Z,33600
2016-08-25T05:51:35.364Z,34784
2016-08-25T05:52:36.035Z,36800
2016-08-25T05:53:36.716Z,36928
2016-08-25T05:54:36.680Z,36992
2016-08-25T05:55:36.665Z,37216
2016-08-25T05:56:35.933Z,37920
2016-08-25T05:57:36.610Z,38976
2016-08-25T05:58:34.491Z,39200
2016-08-25T05:59:36.552Z,38432
2016-08-25T06:00:35.844Z,39200
2016-08-25T06:01:35.810Z,40288
2016-08-25T06:02:35.784Z,40608
2016-08-25T06:03:36.462Z,41312
2016-08-25T06:04:36.432Z,42688
2016-08-25T06:05:35.731Z,41888
2016-08-25T06:06:36.391Z,43712
2016-08-25T06:07:36.365Z,44064
2016-08-25T06:08:35.644Z,42656
2016-08-25T06:09:35.620Z,43168
2016-08-25T06:10:35.595Z,44768
2016-08-25T06:11:36.279Z,45024
2016-08-25T06:12:36.244Z,44736
2016-08-25T06:13:36.224Z,43744
2016-08-25T06:14:35.512Z,44320
2016-08-25T06:15:34.785Z,46528
2016-08-25T06:16:35.468Z,48160
2016-08-25T06:17:36.133Z,48320
2016-08-25T06:18:36.109Z,48608
2016-08-25T06:19:35.394Z,50592
2016-08-25T06:20:36.068Z,51872
2016-08-25T06:21:36.042Z,51744
2016-08-25T06:22:35.323Z,50496
2016-08-25T06:23:36.000Z,50752
2016-08-25T06:24:35.274Z,51136
2016-08-25T06:25:35.262Z,51936
2016-08-25T06:26:35.929Z,53248
2016-08-25T06:27:34.513Z,53184
2016-08-25T06:28:35.889Z,54464
2016-08-25T06:29:35.869Z,57376
2016-08-25T06:30:34.456Z,59072
2016-08-25T06:31:35.128Z,56960
2016-08-25T06:32:35.805Z,55776
2016-08-25T06:33:35.787Z,58528
2016-08-25T06:34:35.063Z,60672
2016-08-25T06:35:35.741Z,60672
2016-08-25T06:36:35.027Z,59392
2016-08-25T06:37:35.694Z,62208
2016-08-25T06:38:34.286Z,65088
2016-08-25T06:39:35.655Z,65216
2016-08-25T06:40:34.935Z,63936
2016-08-25T06:41:35.619Z,63520
2016-08-25T06:42:35.599Z,66112
2016-08-25T06:43:34.899Z,66784
2016-08-25T06:44:35.574Z,65824
2016-08-25T06:45:34.832Z,66432
2016-08-25T06:46:34.122Z,69824
2016-08-25T06:47:35.499Z,70912
2016-08-25T06:48:35.473Z,69280
2016-08-25T06:49:35.466Z,70176
2016-08-25T06:50:35.440Z,70016
2016-08-25T06:51:35.421Z,69088
2016-08-25T06:52:34.008Z,72800
2016-08-25T06:53:33.982Z,76576
2016-08-25T06:54:34.663Z,75840
2016-08-25T06:55:35.334Z,75264
2016-08-25T06:56:35.316Z,75136
2016-08-25T06:57:35.298Z,71456
2016-08-25T06:58:34.580Z,72256
2016-08-25T06:59:35.264Z,78208
2016-08-25T07:00:35.248Z,79264
2016-08-25T07:01:34.534Z,74368
2016-08-25T07:02:35.203Z,72896
2016-08-25T07:03:35.183Z,75232
2016-08-25T07:04:35.159Z,77568
2016-08-25T07:05:34.447Z,77280
2016-08-25T07:06:35.121Z,76704
2016-08-25T07:07:34.419Z,75488
2016-08-25T07:08:34.389Z,80384
2016-08-25T07:09:35.067Z,85792
2016-08-25T07:10:34.363Z,84320
2016-08-25T07:11:34.331Z,83264
2016-08-25T07:12:35.006Z,83776
2016-08-25T07:13:34.991Z,84064
2016-08-25T07:14:34.279Z,85440
2016-08-25T07:15:34.254Z,88480
2016-08-25T07:16:34.932Z,89760
2016-08-25T07:17:34.225Z,89152
2016-08-25T07:18:34.898Z,85152
2016-08-25T07:19:34.177Z,81440
2016-08-25T07:20:34.162Z,80416
2016-08-25T07:21:34.144Z,83328
2016-08-25T07:22:34.823Z,87264
2016-08-25T07:23:34.109Z,86784
2016-08-25T07:24:34.095Z,85920
2016-08-25T07:25:34.776Z,88096
2016-08-25T07:26:34.752Z,88224
2016-08-25T07:27:34.729Z,86592
2016-08-25T07:28:34.721Z,84160
2016-08-25T07:29:34.704Z,86656
2016-08-25T07:30:33.987Z,89568
2016-08-25T07:31:33.960Z,90816
2016-08-25T07:32:34.646Z,93184
2016-08-25T07:33:33.933Z,90848
2016-08-25T07:34:33.907Z,89920
2016-08-25T07:35:34.593Z,90304
2016-08-25T07:36:33.878Z,90336
2016-08-25T07:37:34.566Z,87744
2016-08-25T07:38:33.841Z,88032
2016-08-25T07:39:33.826Z,94848
2016-08-25T07:40:33.816Z,95968
2016-08-25T07:41:34.486Z,91520
2016-08-25T07:42:33.078Z,88800
2016-08-25T07:43:33.765Z,88384
2016-08-25T07:44:33.736Z,94208
2016-08-25T07:45:33.026Z,96768
2016-08-25T07:46:34.408Z,94240
2016-08-25T07:47:33.685Z,91264
2016-08-25T07:48:33.699Z,88320
2016-08-25T07:49:33.652Z,91264
2016-08-25T07:50:34.335Z,93632
2016-08-25T07:51:33.619Z,94304
2016-08-25T07:52:34.300Z,95744
2016-08-25T07:53:33.584Z,97088
2016-08-25T07:54:33.568Z,94528
2016-08-25T07:55:34.245Z,93728
2016-08-25T07:56:32.837Z,94208
2016-08-25T07:57:32.838Z,91776
2016-08-25T07:58:32.809Z,89536
2016-08-25T07:59:33.479Z,92128
2016-08-25T08:00:34.167Z,91776
2016-08-25T08:01:34.154Z,91264
2016-08-25T08:02:33.433Z,94560
2016-08-25T08:03:33.413Z,100224
2016-08-25T08:04:34.092Z,101120
2016-08-25T08:05:33.383Z,100256
2016-08-25T08:06:34.069Z,100032
2016-08-25T08:07:34.055Z,100256
2016-08-25T08:08:34.031Z,100000
2016-08-25T08:09:32.621Z,95520
2016-08-25T08:10:34.017Z,100480
2016-08-25T08:11:33.986Z,100288
2016-08-25T08:12:33.975Z,94272
2016-08-25T08:13:33.958Z,98240
2016-08-25T08:14:33.247Z,72288
2016-08-25T08:15:33.936Z,35936
2016-08-25T08:16:33.927Z,26240
2016-08-25T08:17:33.904Z,25056
2016-08-25T08:18:33.885Z,24576
2016-08-25T08:19:33.172Z,24352
2016-08-25T08:20:33.159Z,24256
2016-08-25T08:21:33.134Z,24192
2016-08-25T08:22:33.822Z,24128
2016-08-25T08:23:33.107Z,24224
2016-08-25T08:24:32.392Z,24096
2016-08-25T08:25:33.780Z,24096
2016-08-25T08:26:33.069Z,24128
2016-08-25T08:27:32.350Z,24128
2016-08-25T08:28:33.739Z,24160
2016-08-25T08:29:33.721Z,24160
2016-08-25T08:30:33.003Z,24256
2016-08-25T08:31:32.992Z,24416
2016-08-25T08:32:33.675Z,24544
2016-08-25T08:33:33.669Z,24672
2016-08-25T08:34:32.945Z,24992
2016-08-25T08:35:33.634Z,25472
2016-08-25T08:36:32.919Z,26240
2016-08-25T08:37:32.206Z,27840
2016-08-25T08:38:33.589Z,36224
2016-08-25T08:39:32.873Z,68256
2016-08-25T08:40:32.864Z,105472
2016-08-25T08:41:33.549Z,120704
2016-08-25T08:42:33.533Z,128960
2016-08-25T08:43:33.517Z,145952
2016-08-25T08:44:33.518Z,158400
2016-08-25T08:45:33.491Z,145184
2016-08-25T08:46:32.093Z,127648
2016-08-25T08:47:32.769Z,121984
2016-08-25T08:48:32.766Z,123776
2016-08-25T08:49:32.743Z,127776
2016-08-25T08:50:33.434Z,122464
2016-08-25T08:51:33.427Z,118944
2016-08-25T08:52:32.008Z,121760
2016-08-25T08:53:33.399Z,123936
2016-08-25T08:54:32.679Z,118848
2016-08-25T08:55:33.377Z,116064
2016-08-25T08:56:33.352Z,117824
2016-08-25T08:57:33.342Z,120416
2016-08-25T08:58:31.931Z,121088
2016-08-25T08:59:32.613Z,114912
2016-08-25T09:00:32.599Z,106560
2016-08-25T09:01:31.894Z,107360
2016-08-25T09:02:32.571Z,119712
2016-08-25T09:03:32.567Z,122240
2016-08-25T09:04:31.858Z,128256
2016-08-25T09:05:31.835Z,132640
2016-08-25T09:06:32.518Z,120832
2016-08-25T09:07:33.203Z,120032
2016-08-25T09:08:32.492Z,117792
2016-08-25T09:09:32.479Z,113440
2016-08-25T09:10:32.475Z,114432
2016-08-25T09:11:33.175Z,115296
2016-08-25T09:12:33.137Z,118624
2016-08-25T09:13:33.128Z,110368
2016-08-25T09:14:33.114Z,102464
2016-08-25T09:15:32.405Z,101280
2016-08-25T09:16:31.698Z,105504
2016-08-25T09:17:31.694Z,105664
2016-08-25T09:18:31.674Z,96992
2016-08-25T09:19:33.048Z,114368
2016-08-25T09:20:33.077Z,156480
2016-08-25T09:21:32.331Z,184480
2016-08-25T09:22:33.018Z,187040
2016-08-25T09:23:33.004Z,137248
2016-08-25T09:24:33.005Z,83360
2016-08-25T09:25:32.981Z,69472
2016-08-25T09:26:32.969Z,65792
2016-08-25T09:27:32.278Z,58048
2016-08-25T09:28:32.947Z,54368
2016-08-25T09:29:32.943Z,56544
2016-08-25T09:30:32.238Z,56832
2016-08-25T09:31:32.919Z,55008
2016-08-25T09:32:32.206Z,60256
2016-08-25T09:33:31.499Z,65824
2016-08-25T09:34:32.884Z,63520
2016-08-25T09:35:32.869Z,60768
2016-08-25T09:36:32.157Z,63872
2016-08-25T09:37:31.458Z,68544
2016-08-25T09:38:32.142Z,66176
2016-08-25T09:39:32.834Z,67584
2016-08-25T09:40:32.142Z,75264
2016-08-25T09:41:32.114Z,78496
2016-08-25T09:42:32.089Z,79360
2016-08-25T09:43:32.776Z,75552
2016-08-25T09:44:32.070Z,79136
2016-08-25T09:45:32.759Z,87680
2016-08-25T09:46:31.347Z,86592
2016-08-25T09:47:32.038Z,85504
2016-08-25T09:48:32.721Z,88704
2016-08-25T09:49:31.323Z,86688
2016-08-25T09:50:32.021Z,87424
2016-08-25T09:51:31.990Z,90048
2016-08-25T09:52:32.694Z,91360
2016-08-25T09:53:32.668Z,92768
2016-08-25T09:54:32.662Z,93984
2016-08-25T09:55:31.970Z,95648
2016-08-25T09:56:32.635Z,95360
2016-08-25T09:57:31.924Z,98912
2016-08-25T09:58:32.612Z,95840
2016-08-25T09:59:32.601Z,94592
2016-08-25T10:00:31.200Z,101312
2016-08-25T10:01:31.890Z,103168
2016-08-25T10:02:31.879Z,105568
2016-08-25T10:03:31.872Z,107232
2016-08-25T10:04:31.859Z,108704
2016-08-25T10:05:31.852Z,104640
2016-08-25T10:06:32.538Z,106784
2016-08-25T10:07:31.833Z,104576
2016-08-25T10:08:31.811Z,104864
2016-08-25T10:09:31.804Z,109056
2016-08-25T10:10:31.793Z,109888
2016-08-25T10:11:31.800Z,105344
2016-08-25T10:12:32.474Z,105888
2016-08-25T10:13:32.459Z,108224
2016-08-25T10:14:31.761Z,102336
2016-08-25T10:15:32.452Z,100096
2016-08-25T10:16:32.433Z,102208
2016-08-25T10:17:31.730Z,106112
2016-08-25T10:18:32.427Z,101568
2016-08-25T10:19:32.396Z,101984
2016-08-25T10:20:32.392Z,104736
2016-08-25T10:21:32.606Z,105056
2016-08-25T10:22:32.377Z,96960
2016-08-25T10:23:32.363Z,95232
2016-08-25T10:24:32.353Z,102112
2016-08-25T10:25:31.649Z,95136
2016-08-25T10:26:31.636Z,94144
2016-08-25T10:27:32.323Z,98848
2016-08-25T10:28:32.316Z,104544
2016-08-25T10:29:32.301Z,104416
2016-08-25T10:30:31.597Z,94336
2016-08-25T10:31:31.591Z,94720
2016-08-25T10:32:32.274Z,95488
2016-08-25T10:33:32.262Z,100480
2016-08-25T10:34:30.865Z,91648
2016-08-25T10:35:31.546Z,53248
2016-08-25T10:36:32.237Z,29088
2016-08-25T10:37:31.542Z,24832
2016-08-25T10:38:32.217Z,22944
2016-08-25T10:39:32.199Z,22752
2016-08-25T10:40:31.496Z,24288
2016-08-25T10:41:31.502Z,29600
2016-08-25T10:42:32.191Z,33504
2016-08-25T10:43:32.163Z,33696
2016-08-25T10:44:31.453Z,29504
2016-08-25T10:45:31.442Z,23936
2016-08-25T10:46:31.440Z,22208
2016-08-25T10:47:31.426Z,24096
2016-08-25T10:48:32.111Z,28064
2016-08-25T10:49:30.710Z,30080
2016-08-25T10:50:32.087Z,30016
2016-08-25T10:51:32.071Z,30208
2016-08-25T10:52:32.061Z,30464
2016-08-25T10:53:30.651Z,30528
2016-08-25T10:54:32.043Z,31296
2016-08-25T10:55:31.330Z,35200
2016-08-25T10:56:30.616Z,42784
2016-08-25T10:57:31.302Z,46016
2016-08-25T10:58:31.990Z,51456
2016-08-25T10:59:31.970Z,81920
2016-08-25T11:00:31.259Z,102272
2016-08-25T11:01:31.948Z,102496
2016-08-25T11:02:31.932Z,95168
2016-08-25T11:03:31.919Z,80576
2016-08-25T11:04:31.908Z,79776
2016-08-25T11:05:31.893Z,84672
2016-08-25T11:06:31.883Z,88864
2016-08-25T11:07:31.864Z,84288
2016-08-25T11:08:31.160Z,83872
2016-08-25T11:09:31.843Z,84032
2016-08-25T11:10:31.131Z,83328
2016-08-25T11:11:31.114Z,80288
2016-08-25T11:12:31.797Z,81568
2016-08-25T11:13:30.405Z,84608
2016-08-25T11:14:31.064Z,84384
2016-08-25T11:15:30.365Z,66656
2016-08-25T11:16:31.764Z,27200
2016-08-25T11:17:31.717Z,16396
2016-08-25T11:18:31.700Z,15496
2016-08-25T11:19:29.598Z,14928
2016-08-25T11:20:30.969Z,14492
2016-08-25T11:21:30.955Z,14128
2016-08-25T11:22:30.252Z,13720
2016-08-25T11:23:31.628Z,13444
2016-08-25T11:24:30.915Z,13184
2016-08-25T11:25:31.585Z,12964
2016-08-25T11:26:30.875Z,12816
2016-08-25T11:27:30.156Z,12592
2016-08-25T11:28:30.137Z,12312
2016-08-25T11:29:31.517Z,12100
2016-08-25T11:30:31.493Z,11800
2016-08-25T11:31:31.496Z,11508
2016-08-25T11:32:31.456Z,11172
2016-08-25T11:33:31.441Z,10840
2016-08-25T11:34:30.732Z,10364
2016-08-25T11:35:31.421Z,9668
2016-08-25T11:36:30.684Z,8868
2016-08-25T11:37:31.363Z,7952
2016-08-25T11:38:30.651Z,7088
2016-08-25T11:39:31.321Z,6416
2016-08-25T11:40:30.614Z,6044
2016-08-25T11:41:30.588Z,5880
2016-08-25T11:42:31.280Z,5816
2016-08-25T11:43:30.544Z,5772
2016-08-25T11:44:31.221Z,5736
2016-08-25T11:45:31.201Z,5712
2016-08-25T11:46:29.091Z,5724
2016-08-25T11:47:30.466Z,5736
2016-08-25T11:48:30.441Z,5724
2016-08-25T11:49:30.418Z,5704
2016-08-25T11:50:30.391Z,5668
2016-08-25T11:51:30.377Z,5624
2016-08-25T11:52:31.051Z,5552
2016-08-25T11:53:31.024Z,5524
2016-08-25T11:54:30.311Z,5500
2016-08-25T11:55:29.589Z,5488
2016-08-25T11:56:29.564Z,5476
2016-08-25T11:57:30.938Z,5456
2016-08-25T11:58:30.916Z,5428
2016-08-25T11:59:30.892Z,5428
2016-08-25T12:00:30.173Z,5428
2016-08-25T12:01:30.845Z,5424
2016-08-25T12:02:30.132Z,5428
2016-08-25T12:03:30.819Z,5412
2016-08-25T12:04:29.404Z,5352
2016-08-25T12:05:30.761Z,5316
2016-08-25T12:06:30.044Z,5296
2016-08-25T12:07:30.022Z,5280
2016-08-25T12:08:30.696Z,5268
2016-08-25T12:09:30.678Z,5252
2016-08-25T12:10:29.956Z,5216
2016-08-25T12:11:29.926Z,5200
2016-08-25T12:12:29.914Z,5200
2016-08-25T12:13:30.571Z,5196
2016-08-25T12:14:30.565Z,5188
2016-08-25T12:15:29.834Z,5172
2016-08-25T12:16:29.806Z,5152
2016-08-25T12:17:30.480Z,5136
2016-08-25T12:18:29.759Z,5128
2016-08-25T12:19:29.038Z,5128
2016-08-25T12:20:29.709Z,5144
2016-08-25T12:21:30.385Z,5140
2016-08-25T12:22:29.667Z,5124
2016-08-25T12:23:29.640Z,5108
2016-08-25T12:24:30.310Z,5088
2016-08-25T12:25:30.290Z,5056
2016-08-25T12:26:30.271Z,5020
2016-08-25T12:27:29.560Z,4980
2016-08-25T12:28:29.525Z,4948
2016-08-25T12:29:30.205Z,4944
2016-08-25T12:30:28.777Z,4940
2016-08-25T12:31:29.456Z,4936
2016-08-25T12:32:30.134Z,4916
2016-08-25T12:33:29.411Z,4896
2016-08-25T12:34:30.085Z,4872
2016-08-25T12:35:27.972Z,4856
2016-08-25T12:36:30.044Z,4824
2016-08-25T12:37:29.305Z,4804
2016-08-25T12:38:29.985Z,4816
2016-08-25T12:39:29.269Z,4796
2016-08-25T12:40:29.931Z,4772
2016-08-25T12:41:29.914Z,4740
2016-08-25T12:42:28.498Z,4720
2016-08-25T12:43:29.163Z,4716
2016-08-25T12:44:29.843Z,4712
2016-08-25T12:45:29.175Z,4708
2016-08-25T12:46:29.794Z,4712
2016-08-25T12:47:29.775Z,4712
2016-08-25T12:48:29.045Z,4704
2016-08-25T12:49:29.716Z,4688
2016-08-25T12:50:29.005Z,4660
2016-08-25T12:51:29.681Z,4616
2016-08-25T12:52:28.952Z,4588
2016-08-25T12:53:28.925Z,4568
2016-08-25T12:54:28.913Z,4560
2016-08-25T12:55:28.881Z,4556
2016-08-25T12:56:28.852Z,4552
2016-08-25T12:57:29.530Z,4528
2016-08-25T12:58:28.114Z,4504
2016-08-25T12:59:29.475Z,4492
2016-08-25T13:00:28.758Z,4472
2016-08-25T13:01:29.445Z,4456
2016-08-25T13:02:29.411Z,4444
2016-08-25T13:03:27.993Z,4432
2016-08-25T13:04:29.357Z,4424
2016-08-25T13:05:28.635Z,4412
2016-08-25T13:06:29.331Z,4400
2016-08-25T13:07:28.596Z,4388
2016-08-25T13:08:27.861Z,4376
2016-08-25T13:09:29.241Z,4360
2016-08-25T13:10:28.512Z,4320
2016-08-25T13:11:28.509Z,4292
2016-08-25T13:12:29.170Z,4268
2016-08-25T13:13:28.443Z,4256
2016-08-25T13:14:27.723Z,4268
2016-08-25T13:15:29.092Z,4272
2016-08-25T13:16:29.072Z,4264
2016-08-25T13:17:28.349Z,4260
2016-08-25T13:18:29.026Z,4260
2016-08-25T13:19:28.998Z,4268
2016-08-25T13:20:28.988Z,4252
2016-08-25T13:21:28.959Z,4232
2016-08-25T13:22:28.933Z,4208
2016-08-25T13:23:27.506Z,4184
2016-08-25T13:24:28.176Z,4164
2016-08-25T13:25:27.473Z,4160
2016-08-25T13:26:28.135Z,4140
2016-08-25T13:27:28.107Z,4140
2016-08-25T13:28:28.782Z,4136
2016-08-25T13:29:28.061Z,4128